Relevés horaires Oostende (Belgique)


Relevés horaires à Oostende - Dimanche 07 Nov. 2021
Heure UTC1 Température [°C] Vent [km/h] Hum. [%] Pres.4 [hPa] Visi. [Km] Nébu. [octa] Préc.5 [mm] Cond.
2m. Res. Ros. Dir.2 Vit. Moy. Raf.3
23:00 10.2 8.7 4.7 NO 11.1 13.0 18.5 69 1021.8(0.7/3h) 15 7/8 -- --
22:00 10.0 8.5 5.2 NO 11.1 13.0 18.5 72 1021.6(0.8/3h) 15 7/8 -- --
21:00 10.1 8.3 4.6 NO 13.0 14.8 20.4 69 1021.4(0.9/3h) 15 7/8 -- --
20:00 10.6 8.9 4.3 NO 13.0 14.8 20.4 65 1021.1(0.9/3h) 16 7/8 -- --
19:00 10.8 9.1 4.6 NO 13.0 14.8 20.4 65 1020.8(0.8/3h) 16 7/8 -- --
18:00 10.6 8.7 3.8 NO 14.8 -- -- 63 1020.5(0.3/3h) 16 6/8 0/12h
--
17:00 10.6 8.5 4.1 ONO 16.7 16.7 22.2 64 1020.3(0.4/3h) 16 6/8 -- --
16:00 10.5 8.3 4.3 ONO 16.7 16.7 20.4 65 1019.9(-0.1/3h) 16 6/8 -- --
15:00 10.7 8.8 4.7 ONO 14.8 16.7 24.1 66 1020.2(-0.1/3h) 16 6/8 -- --
14:00 10.7 8.6 4.6 ONO 16.7 16.7 24.1 66 1019.9(-0.2/3h) 16 6/8 -- --
13:00 10.6 8.5 4.8 ONO 16.7 16.7 24.1 67 1020(0.2/3h) 16 5/8 -- --
12:00 10.8 8.7 4.5 ONO 16.7 -- -- 65 1020.1(0.4/3h) 16 6/8 0/6h
--
11:00 10.6 8.5 4.8 ONO 16.7 18.5 25.9 67 1020.1(0.6/3h) 18 6/8 -- --
10:00 11.0 9.2 4.4 ONO 14.8 16.7 22.2 64 1019.8(0.4/3h) 18 6/8 -- --
09:00 10.8 8.7 5.0 ONO 16.7 16.7 22.2 67 1019.7(0.7/3h) 20 6/8 -- --
08:00 10.8 8.7 4.1 ONO 16.7 16.7 22.2 63 1019.5(0.7/3h) 20 6/8 -- --
07:00 10.6 8.7 4.9 ONO 14.8 16.7 22.2 68 1019.4(0.9/3h) 20 6/8 -- --
06:00 11.1 9.3 5.2 NO 14.8 -- -- 67 1019(0.2/3h) 13 7/8 1/12h
--
05:00 11.1 9.3 5.8 NO 14.8 16.7 22.2 70 1018.8(-0.4/3h) 13 7/8 -- --
04:00 12.1 10.5 9.5 O 14.8 16.7 20.4 84 1018.5(-0.8/3h) 13 7/8 -- --
03:00 12.2 10.5 9.9 O 16.7 16.7 22.2 86 1018.8(-0.9/3h) 13 7/8 -- --
02:00 12.3 10.6 10.4 O 16.7 16.7 22.2 88 1019.1(-1.2/3h) 13 7/8 -- --
01:00 11.2 10.2 9.8 SO 9.3 13.0 16.7 91 1019.3(-1.5/3h) 13 7/8 -- --
00:00 10.8 9.1 9.7 SO 13.0 -- -- 93 1019.7(-1.8/3h) 13 7/8 1/6h
1/24h
Il est tombé de la pluie (non sous forme d'averses) à la station au cours de l'heure précédente, mais il n'y en a pas au moment de l'observation

1 Coordinated Universal Time. Actuellement il est 01:00 locale et 23:00 UTC.

2 Le vent souffle depuis la direction indiquée vers la direction oposée.

3 Les rafales max. sont disponible 40 min après l'heure du relevé.

4 Pour les stations d'altitude (plus de 600m) le géopotentiel du niveau le plus proche de la pression obligatoire est indiqué.

5 Les stations disposant d'un diffuseur peuvent indiquer "trace". Cela signifie que des précipitations ont touchés le sol mais que la quantité est inférieure à 0.1 mm.

Récapitulatif de la journée
Température [°C] Vent [km/h] Ensoleillement4 [h] Precipitations totale5 [mm] Pression [Hpa]
Min1 Max.2 Moy.3 Max. Min Max.
9.7 11.2 16 25.9 0 h 0 min 0 1018.5 1021.8

1 Température minimale relevée entre 18:00 UTC la veille et 18:00 UTC le jour donné.

2 Température maximale relevée entre 06:00 UTC le jour donné et 06:00 UTC le lendemain.

3 Vent moyen de la journée basé sur les relevés horaires.

4 Ensoleillement en heures relevé entre 06:00 UTC la veille et 06:00 UTC le jour donné.

5 Précipitations totales tombées entre 06:00 UTC la jour donné et 06:00 UTC le lendemain.

Graphiques horaires